createdAt,value
2022-11-03T00:04:40.913Z,1019.072231463754
2022-11-03T00:11:15.953Z,1019.0342723330908
2022-11-03T00:20:42.583Z,1018.8395026891247
2022-11-03T00:27:38.507Z,1018.7536397869335
2022-11-03T00:34:13.422Z,1018.6908061960851
2022-11-03T00:47:28.918Z,1018.5593252805962
2022-11-03T00:53:59.175Z,1018.5083000641001
2022-11-03T01:00:28.614Z,1018.4170984378846
2022-11-03T01:06:57.296Z,1018.3304582153908
2022-11-03T01:13:26.308Z,1018.2829336312604
2022-11-03T01:19:54.066Z,1018.193924309247
2022-11-03T01:26:39.877Z,1018.1195200151946
2022-11-03T01:33:11.444Z,1018.0844375313401
2022-11-03T01:39:39.385Z,1018.1324259937263
2022-11-03T01:46:12.854Z,1018.1737236331048
2022-11-03T01:53:07.466Z,1018.1730795166856
2022-11-03T01:59:41.420Z,1018.0332568790619
2022-11-03T02:06:10.714Z,1017.9421987752537
2022-11-03T02:16:10.753Z,1017.6138955344073
2022-11-03T02:22:56.979Z,1017.4956678653951
2022-11-03T02:29:26.389Z,1017.4342034699774
2022-11-03T02:35:58.393Z,1017.2752917865097
2022-11-03T02:42:27.503Z,1017.2431793805515
2022-11-03T02:48:56.547Z,1017.1697001227101
2022-11-03T03:01:50.339Z,1017.1270236729443
2022-11-03T03:08:21.518Z,1017.0947236373077
2022-11-03T03:14:50.301Z,1017.046492475764
2022-11-03T03:23:48.674Z,1016.9325827764122
2022-11-03T03:30:18.636Z,1016.843350050934
2022-11-03T03:36:47.293Z,1016.7295878752268
2022-11-03T03:48:10.542Z,1016.647198979895
2022-11-03T03:54:39.026Z,1016.5816914911466
2022-11-03T04:01:06.455Z,1016.5274774156823
2022-11-03T04:07:42.373Z,1016.4946560823734
2022-11-03T04:14:12.837Z,1016.4578381531643
2022-11-03T04:20:40.216Z,1016.3872997523537
2022-11-03T04:27:25.337Z,1016.3480333033851
2022-11-03T04:33:52.722Z,1016.2947736087016
2022-11-03T04:40:21.673Z,1016.2393938812706
2022-11-03T04:46:49.698Z,1016.2335139529401
2022-11-03T04:53:17.752Z,1016.182470835894
2022-11-03T05:01:04.694Z,1016.151890160341
2022-11-03T05:07:33.469Z,1016.1188333219253
2022-11-03T05:14:00.954Z,1016.0279900819938
2022-11-03T05:26:23.633Z,1015.9153028016419
2022-11-03T05:32:52.953Z,1015.7838146868787
2022-11-03T05:39:21.975Z,1015.6799100219374
2022-11-03T05:45:55.165Z,1015.5849994420705
2022-11-03T05:52:23.891Z,1015.5309952603759
2022-11-03T05:58:51.072Z,1015.5015586519023
2022-11-03T06:05:19.844Z,1015.4438099569848
2022-11-03T06:13:55.901Z,1015.3607799492969
2022-11-03T06:20:25.151Z,1015.3052614950252
2022-11-03T06:27:12.279Z,1015.2382994978334
2022-11-03T06:33:44.347Z,1015.2175361866589
2022-11-03T06:43:58.742Z,1015.1247106056978
2022-11-03T06:50:26.442Z,1015.0319015339239
2022-11-03T06:57:47.459Z,1015.0112979858759
2022-11-03T07:07:02.187Z,1014.906445949748
2022-11-03T07:17:12.003Z,1014.8162903967453
2022-11-03T07:34:06.727Z,1014.7994109635692
2022-11-03T07:50:02.091Z,1014.5713976907371
2022-11-03T08:08:31.244Z,1014.3739403720886
2022-11-03T08:14:59.028Z,1014.33378266456
2022-11-03T08:21:26.936Z,1014.2443712575297
2022-11-03T08:28:05.271Z,1014.1690935471588
2022-11-03T08:38:19.992Z,1014.0330712385104
2022-11-03T08:46:22.967Z,1013.9953357983326
2022-11-03T08:52:52.058Z,1013.8341962580978
2022-11-03T08:59:20.875Z,1013.733634071403
2022-11-03T09:13:11.817Z,1013.5881236523899
2022-11-03T09:19:40.956Z,1013.5419026478953
2022-11-03T09:26:20.754Z,1013.5033850933864
2022-11-03T09:32:48.503Z,1013.469854367026
2022-11-03T09:39:17.481Z,1013.3684685992407
2022-11-03T09:45:45.490Z,1013.2882465380692
2022-11-03T09:54:30.036Z,1013.2547308996185
2022-11-03T10:05:18.138Z,1013.1076919988157
2022-11-03T10:11:48.884Z,1013.0414094600605
2022-11-03T10:24:22.187Z,1012.9734070908796
2022-11-03T10:40:02.167Z,1012.8910329412123
2022-11-03T10:46:48.985Z,1012.7914962406154
2022-11-03T10:56:20.859Z,1012.6497344822922
2022-11-03T11:02:48.823Z,1012.5635756554788
2022-11-03T11:09:16.968Z,1012.4858272879026
2022-11-03T11:15:44.637Z,1012.358681608094
2022-11-03T11:22:14.479Z,1012.1767990378846
2022-11-03T11:28:51.417Z,1011.9771558927873
2022-11-03T11:35:21.268Z,1011.7979220787113
2022-11-03T11:41:49.547Z,1011.6405187439531
2022-11-03T11:50:38.473Z,1011.46905368662
2022-11-03T11:59:38.785Z,1011.3861813285441
2022-11-03T12:06:08.176Z,1011.3090816631864
2022-11-03T12:12:36.570Z,1011.2517346201081
2022-11-03T12:19:04.330Z,1011.1214528965949
2022-11-03T12:25:43.020Z,1011.0083333814803
2022-11-03T12:32:25.841Z,1010.999386716847
2022-11-03T12:39:02.782Z,1010.8734527331388
2022-11-03T12:45:34.495Z,1010.7420651201164
2022-11-03T12:52:07.650Z,1010.5371707543586
2022-11-03T12:58:36.090Z,1010.4864754778699
2022-11-03T13:05:05.470Z,1010.377656839311
2022-11-03T13:11:35.197Z,1010.3555182543143
2022-11-03T13:18:13.303Z,1010.2582813540499
2022-11-03T13:24:55.051Z,1010.1512500574518
2022-11-03T13:31:23.290Z,1010.060025644673
2022-11-03T13:37:53.305Z,1009.9024665782104
2022-11-03T13:47:11.922Z,1009.5886016029132
2022-11-03T14:06:31.687Z,1009.2565721890326
2022-11-03T14:12:59.349Z,1009.0508596342085
2022-11-03T14:19:36.499Z,1008.782322469914
2022-11-03T14:26:25.317Z,1008.6131110474658
2022-11-03T14:33:13.621Z,1008.491471411197
2022-11-03T14:39:41.790Z,1008.3119782419408
2022-11-03T14:50:39.243Z,1008.163409941692
2022-11-03T14:57:06.972Z,1008.0338072651455
2022-11-03T15:03:34.624Z,1007.8178831573205
2022-11-03T15:15:52.734Z,1007.6556281910781
2022-11-03T15:29:27.588Z,1007.3528552888037
2022-11-03T15:35:55.968Z,1007.2344315718483
2022-11-03T15:44:33.722Z,1007.1128195212145
2022-11-03T15:51:01.794Z,1006.8798655091043
2022-11-03T15:58:20.526Z,1006.7696700479257
2022-11-03T16:04:49.467Z,1006.6383628526221
2022-11-03T16:11:17.768Z,1006.4348273464607
2022-11-03T16:19:52.221Z,1006.4088824766168
2022-11-03T16:31:45.237Z,1006.2648731362356
2022-11-03T16:38:14.138Z,1006.1470209987394
2022-11-03T16:44:56.074Z,1006.0518929589331
2022-11-03T16:51:25.959Z,1005.9943585234354
2022-11-03T16:57:54.112Z,1005.873208359827
2022-11-03T17:04:23.388Z,1005.7453052115196
2022-11-03T17:10:52.507Z,1005.6928244622897
2022-11-03T17:17:20.937Z,1005.6472023485301
2022-11-03T17:24:03.071Z,1005.5750218907081
2022-11-03T17:30:32.136Z,1005.469338744077
2022-11-03T17:40:02.747Z,1005.4456605584645
2022-11-03T17:46:31.164Z,1005.4212753207023
2022-11-03T18:00:52.062Z,1005.2366993431057
2022-11-03T18:07:20.029Z,1005.148656961545
2022-11-03T18:13:48.636Z,1005.1205550016356
2022-11-03T18:22:53.986Z,1004.9817185412606
2022-11-03T18:29:23.003Z,1004.9166909262215
2022-11-03T18:41:19.188Z,1004.7731753458309
2022-11-03T19:03:25.851Z,1004.3682479350413
2022-11-03T19:19:52.957Z,1004.1133387849919
2022-11-03T19:27:53.143Z,1003.9845722396069
2022-11-03T19:35:16.893Z,1003.8725594318342
2022-11-03T19:43:11.160Z,1003.8537670878607
2022-11-03T19:51:08.133Z,1003.6323163368471
2022-11-03T20:03:54.188Z,1003.5068581801205
2022-11-03T20:11:31.063Z,1003.4263038411316
2022-11-03T20:19:07.914Z,1003.419536741503
2022-11-03T20:27:17.168Z,1003.217639246608
2022-11-03T20:35:03.619Z,1003.2092082306391
2022-11-03T20:42:30.635Z,1003.2302586583944
2022-11-03T20:50:08.935Z,1003.2533960512226
2022-11-03T20:57:55.846Z,1003.2350088803835
2022-11-03T21:05:58.488Z,1003.1197762902134
2022-11-03T21:13:28.708Z,1003.0497434022213
2022-11-03T21:38:18.934Z,1002.8368489664565
2022-11-03T21:54:30.099Z,1002.8012291551081
2022-11-03T22:06:18.206Z,1002.8312505721185
2022-11-03T22:14:58.477Z,1002.8520847391881
2022-11-03T22:22:56.752Z,1002.7925798583201
2022-11-03T22:30:45.784Z,1002.6812926616908
2022-11-03T22:38:13.645Z,1002.6358881779864
2022-11-03T22:46:04.367Z,1002.5223252733015
2022-11-03T22:53:41.257Z,1002.4831664003235
2022-11-03T23:01:05.183Z,1002.4298955418633
2022-11-03T23:16:50.960Z,1002.3597602850253
2022-11-03T23:24:28.741Z,1002.3275272023781
2022-11-03T23:32:05.310Z,1002.1813061964993
2022-11-03T23:48:25.621Z,1002.1681033200697
